John Day, OR

12:11 PM PST on January 24, 2017 (GMT -0800)
Grant County Airport south, Oregon | | Change Station

Elev 3696 ft 44.40 °N, 118.97 °W | Updated 6 seconds ago

Overcast
Overcast
30.2 °F
Feels Like 23 °F
N
6.8
Wind Variable Wind from West

Today
High -- | Low -- °F
--% Chance of Precip.
Yesterday
High -- | Low -- °F
Precip. -- in
Pressure 29.98 in
Visibility 10.0 miles
Clouds Overcast 4900 ft
Windchill 23 °F
Dew Point 24 °F
Humidity 77%
Rainfall 0.00 in
Snow Depth Not available.
7:21 AM 4:54 PM
Waning Crescent, 10% visible
METAR KGCD 241955Z AUTO 26005KT 10SM OVC049 00/M04 A2998 RMK AO2 T10051040
Pressure 29.98 in
Visibility 10.0 miles
Clouds Overcast 4900 ft
Windchill 23 °F
Dew Point 24 °F
Humidity 77%
Rainfall 0.00 in
Snow Depth Not available.
7:21 AM 4:54 PM
Waning Crescent, 10% visible
METAR KGCD 241955Z AUTO 26005KT 10SM OVC049 00/M04 A2998 RMK AO2 T10051040

Get Your Daily Forecast Email!

Thanks for signing up!

Be on the lookout for a verification email in your inbox.

You'll start receiving the daily forecast at 8 AM.

×

10-Day Weather Forecast

Almanac

Astronomy

Jan. 24, 2017 Rise Set
Actual Time
Civil Twilight
Nautical Twilight
Astronomical Twilight
Moon
Length of Visible Light
Length of Day
Tomorrow will be .
, % of the Moon is Illuminated

Today's Extremes

State Highs State Lows

Community

WunderPhotos

Upload Photos

1,962,540 photos uploaded!

WunderBlog® & News

Nearby

Air Quality

  Air Quality AQ Index Pollutant
Not available.

Snow Depth

Station Depth Elevation

Earthquake Activity

City Distance Mag. Time & Date
Minimum magnitude displayed is 2.5.

Coastal Water Temperatures

Place Temperature

Stations

Nearby Weather Stations

Station Location Temp. Windchill Dew Point Humidity Wind Precip. Elev Updated Type
                   

Watches & Warnings

There are currently no watches in effect.